sensor_id;sensor_type;location;lat;lon;timestamp;P1;durP1;ratioP1;P2;durP2;ratioP2
22794;SDS011;11564;50.920;11.612;2023-07-30T00:01:12;3.63;;;3.23;;
22794;SDS011;11564;50.920;11.612;2023-07-30T00:03:37;4.33;;;2.97;;
22794;SDS011;11564;50.920;11.612;2023-07-30T00:06:03;4.03;;;3.67;;
22794;SDS011;11564;50.920;11.612;2023-07-30T00:08:29;3.00;;;2.80;;
22794;SDS011;11564;50.920;11.612;2023-07-30T00:10:56;3.70;;;2.90;;
22794;SDS011;11564;50.920;11.612;2023-07-30T00:13:23;5.30;;;3.10;;
22794;SDS011;11564;50.920;11.612;2023-07-30T00:15:48;3.10;;;2.90;;
22794;SDS011;11564;50.920;11.612;2023-07-30T00:18:14;3.13;;;2.87;;
22794;SDS011;11564;50.920;11.612;2023-07-30T00:20:40;3.70;;;3.03;;
22794;SDS011;11564;50.920;11.612;2023-07-30T00:23:06;2.80;;;2.60;;
22794;SDS011;11564;50.920;11.612;2023-07-30T00:25:32;3.70;;;3.40;;
22794;SDS011;11564;50.920;11.612;2023-07-30T00:27:57;5.53;;;3.40;;
22794;SDS011;11564;50.920;11.612;2023-07-30T00:30:23;3.33;;;2.97;;
22794;SDS011;11564;50.920;11.612;2023-07-30T00:32:49;4.10;;;3.80;;
22794;SDS011;11564;50.920;11.612;2023-07-30T00:35:14;8.27;;;3.10;;
22794;SDS011;11564;50.920;11.612;2023-07-30T00:37:40;6.80;;;2.80;;
22794;SDS011;11564;50.920;11.612;2023-07-30T00:40:06;4.40;;;3.37;;
22794;SDS011;11564;50.920;11.612;2023-07-30T00:42:32;3.40;;;3.10;;
22794;SDS011;11564;50.920;11.612;2023-07-30T00:44:57;3.30;;;3.10;;
22794;SDS011;11564;50.920;11.612;2023-07-30T00:47:23;3.90;;;3.60;;
22794;SDS011;11564;50.920;11.612;2023-07-30T00:49:50;3.60;;;3.37;;
22794;SDS011;11564;50.920;11.612;2023-07-30T00:52:16;3.77;;;3.50;;
22794;SDS011;11564;50.920;11.612;2023-07-30T00:54:43;4.57;;;3.33;;
22794;SDS011;11564;50.920;11.612;2023-07-30T00:57:10;8.97;;;3.43;;
22794;SDS011;11564;50.920;11.612;2023-07-30T00:59:36;3.37;;;3.17;;
22794;SDS011;11564;50.920;11.612;2023-07-30T01:02:02;4.73;;;3.47;;
22794;SDS011;11564;50.920;11.612;2023-07-30T01:04:28;5.13;;;3.77;;
22794;SDS011;11564;50.920;11.612;2023-07-30T01:06:54;3.10;;;2.97;;
22794;SDS011;11564;50.920;11.612;2023-07-30T01:09:20;12.20;;;3.30;;
22794;SDS011;11564;50.920;11.612;2023-07-30T01:11:46;3.70;;;3.40;;
22794;SDS011;11564;50.920;11.612;2023-07-30T01:14:12;4.77;;;4.00;;
22794;SDS011;11564;50.920;11.612;2023-07-30T01:16:39;3.20;;;2.93;;
22794;SDS011;11564;50.920;11.612;2023-07-30T01:19:05;3.80;;;3.33;;
22794;SDS011;11564;50.920;11.612;2023-07-30T01:21:35;7.40;;;3.60;;
22794;SDS011;11564;50.920;11.612;2023-07-30T01:24:01;6.27;;;3.43;;
22794;SDS011;11564;50.920;11.612;2023-07-30T01:26:27;7.27;;;4.60;;
22794;SDS011;11564;50.920;11.612;2023-07-30T01:29:00;3.87;;;3.57;;
22794;SDS011;11564;50.920;11.612;2023-07-30T01:31:28;13.87;;;3.87;;
22794;SDS011;11564;50.920;11.612;2023-07-30T01:33:57;7.60;;;5.30;;
22794;SDS011;11564;50.920;11.612;2023-07-30T01:36:23;5.03;;;3.70;;
22794;SDS011;11564;50.920;11.612;2023-07-30T01:38:50;5.60;;;5.10;;
22794;SDS011;11564;50.920;11.612;2023-07-30T01:41:17;4.50;;;4.10;;
22794;SDS011;11564;50.920;11.612;2023-07-30T01:43:43;7.70;;;3.97;;
22794;SDS011;11564;50.920;11.612;2023-07-30T01:46:08;3.97;;;3.50;;
22794;SDS011;11564;50.920;11.612;2023-07-30T01:48:34;2.70;;;2.50;;
22794;SDS011;11564;50.920;11.612;2023-07-30T01:51:00;9.73;;;4.07;;
22794;SDS011;11564;50.920;11.612;2023-07-30T01:53:25;4.00;;;3.70;;
22794;SDS011;11564;50.920;11.612;2023-07-30T01:55:51;4.70;;;4.30;;
22794;SDS011;11564;50.920;11.612;2023-07-30T01:58:16;8.83;;;4.67;;
22794;SDS011;11564;50.920;11.612;2023-07-30T02:00:42;4.37;;;3.97;;
22794;SDS011;11564;50.920;11.612;2023-07-30T02:03:09;5.30;;;4.80;;
22794;SDS011;11564;50.920;11.612;2023-07-30T02:05:34;5.37;;;4.93;;
22794;SDS011;11564;50.920;11.612;2023-07-30T02:08:00;6.03;;;4.83;;
22794;SDS011;11564;50.920;11.612;2023-07-30T02:10:26;7.33;;;4.67;;
22794;SDS011;11564;50.920;11.612;2023-07-30T02:12:52;6.20;;;5.20;;
22794;SDS011;11564;50.920;11.612;2023-07-30T02:15:17;6.57;;;4.70;;
22794;SDS011;11564;50.920;11.612;2023-07-30T02:17:43;7.90;;;5.80;;
22794;SDS011;11564;50.920;11.612;2023-07-30T02:20:08;5.10;;;4.60;;
22794;SDS011;11564;50.920;11.612;2023-07-30T02:22:34;7.80;;;6.40;;
22794;SDS011;11564;50.920;11.612;2023-07-30T02:25:00;5.30;;;4.90;;
22794;SDS011;11564;50.920;11.612;2023-07-30T02:27:26;10.83;;;4.67;;
22794;SDS011;11564;50.920;11.612;2023-07-30T02:29:51;9.20;;;5.07;;
22794;SDS011;11564;50.920;11.612;2023-07-30T02:32:17;6.40;;;4.67;;
22794;SDS011;11564;50.920;11.612;2023-07-30T02:34:42;6.37;;;4.00;;
22794;SDS011;11564;50.920;11.612;2023-07-30T02:37:08;7.20;;;3.37;;
22794;SDS011;11564;50.920;11.612;2023-07-30T02:39:34;4.03;;;3.70;;
22794;SDS011;11564;50.920;11.612;2023-07-30T02:41:59;4.87;;;4.47;;
22794;SDS011;11564;50.920;11.612;2023-07-30T02:44:25;6.43;;;4.30;;
22794;SDS011;11564;50.920;11.612;2023-07-30T02:46:50;4.30;;;3.90;;
22794;SDS011;11564;50.920;11.612;2023-07-30T02:49:16;4.50;;;4.10;;
22794;SDS011;11564;50.920;11.612;2023-07-30T02:51:42;4.13;;;3.73;;
22794;SDS011;11564;50.920;11.612;2023-07-30T02:54:13;4.10;;;3.77;;
22794;SDS011;11564;50.920;11.612;2023-07-30T02:56:39;7.73;;;4.30;;
22794;SDS011;11564;50.920;11.612;2023-07-30T02:59:04;5.90;;;5.30;;
22794;SDS011;11564;50.920;11.612;2023-07-30T03:01:30;12.03;;;5.17;;
22794;SDS011;11564;50.920;11.612;2023-07-30T03:03:55;4.73;;;4.33;;
22794;SDS011;11564;50.920;11.612;2023-07-30T03:06:21;5.10;;;4.60;;
22794;SDS011;11564;50.920;11.612;2023-07-30T03:08:47;8.67;;;4.40;;
22794;SDS011;11564;50.920;11.612;2023-07-30T03:11:12;8.33;;;4.70;;
22794;SDS011;11564;50.920;11.612;2023-07-30T03:13:38;4.53;;;4.13;;
22794;SDS011;11564;50.920;11.612;2023-07-30T03:16:04;4.83;;;3.50;;
22794;SDS011;11564;50.920;11.612;2023-07-30T03:18:30;5.23;;;3.73;;
22794;SDS011;11564;50.920;11.612;2023-07-30T03:20:59;4.07;;;3.77;;
22794;SDS011;11564;50.920;11.612;2023-07-30T03:23:25;5.57;;;3.60;;
22794;SDS011;11564;50.920;11.612;2023-07-30T03:25:51;3.40;;;3.10;;
22794;SDS011;11564;50.920;11.612;2023-07-30T03:28:17;7.67;;;3.50;;
22794;SDS011;11564;50.920;11.612;2023-07-30T03:30:42;9.07;;;3.90;;
22794;SDS011;11564;50.920;11.612;2023-07-30T03:33:08;5.00;;;3.03;;
22794;SDS011;11564;50.920;11.612;2023-07-30T03:35:34;3.70;;;3.40;;
22794;SDS011;11564;50.920;11.612;2023-07-30T03:37:59;3.37;;;3.17;;
22794;SDS011;11564;50.920;11.612;2023-07-30T03:40:25;3.63;;;3.30;;
22794;SDS011;11564;50.920;11.612;2023-07-30T03:42:51;5.20;;;3.23;;
22794;SDS011;11564;50.920;11.612;2023-07-30T03:45:16;6.90;;;3.10;;
22794;SDS011;11564;50.920;11.612;2023-07-30T03:47:42;4.50;;;3.40;;
22794;SDS011;11564;50.920;11.612;2023-07-30T03:50:08;7.83;;;4.27;;
22794;SDS011;11564;50.920;11.612;2023-07-30T03:52:34;4.40;;;4.00;;
22794;SDS011;11564;50.920;11.612;2023-07-30T03:54:59;9.00;;;4.23;;
22794;SDS011;11564;50.920;11.612;2023-07-30T03:57:25;6.10;;;3.83;;
22794;SDS011;11564;50.920;11.612;2023-07-30T03:59:50;7.07;;;3.63;;
22794;SDS011;11564;50.920;11.612;2023-07-30T04:02:16;3.90;;;3.60;;
22794;SDS011;11564;50.920;11.612;2023-07-30T04:04:42;4.47;;;3.90;;
22794;SDS011;11564;50.920;11.612;2023-07-30T04:07:13;3.33;;;3.13;;
22794;SDS011;11564;50.920;11.612;2023-07-30T04:09:39;5.90;;;3.80;;
22794;SDS011;11564;50.920;11.612;2023-07-30T04:12:04;4.27;;;3.90;;
22794;SDS011;11564;50.920;11.612;2023-07-30T04:14:30;4.03;;;3.60;;
22794;SDS011;11564;50.920;11.612;2023-07-30T04:16:56;5.03;;;3.73;;
22794;SDS011;11564;50.920;11.612;2023-07-30T04:19:21;5.53;;;3.90;;
22794;SDS011;11564;50.920;11.612;2023-07-30T04:21:47;5.97;;;3.90;;
22794;SDS011;11564;50.920;11.612;2023-07-30T04:24:13;6.40;;;4.43;;
22794;SDS011;11564;50.920;11.612;2023-07-30T04:26:38;4.33;;;3.93;;
22794;SDS011;11564;50.920;11.612;2023-07-30T04:29:04;8.23;;;3.90;;
22794;SDS011;11564;50.920;11.612;2023-07-30T04:31:30;8.10;;;4.00;;
22794;SDS011;11564;50.920;11.612;2023-07-30T04:33:57;4.17;;;3.87;;
22794;SDS011;11564;50.920;11.612;2023-07-30T04:36:23;8.30;;;4.30;;
22794;SDS011;11564;50.920;11.612;2023-07-30T04:38:48;4.73;;;4.23;;
22794;SDS011;11564;50.920;11.612;2023-07-30T04:41:14;4.50;;;4.20;;
22794;SDS011;11564;50.920;11.612;2023-07-30T04:43:40;4.30;;;4.00;;
22794;SDS011;11564;50.920;11.612;2023-07-30T04:46:05;5.00;;;4.03;;
22794;SDS011;11564;50.920;11.612;2023-07-30T04:48:31;5.80;;;4.00;;
22794;SDS011;11564;50.920;11.612;2023-07-30T04:50:56;4.20;;;3.80;;
22794;SDS011;11564;50.920;11.612;2023-07-30T04:53:22;6.00;;;3.53;;
22794;SDS011;11564;50.920;11.612;2023-07-30T04:55:48;9.43;;;4.50;;
22794;SDS011;11564;50.920;11.612;2023-07-30T04:58:13;6.80;;;4.47;;
22794;SDS011;11564;50.920;11.612;2023-07-30T05:00:39;6.07;;;4.53;;
22794;SDS011;11564;50.920;11.612;2023-07-30T05:03:05;7.63;;;3.97;;
22794;SDS011;11564;50.920;11.612;2023-07-30T05:05:30;5.33;;;3.93;;
22794;SDS011;11564;50.920;11.612;2023-07-30T05:07:56;4.77;;;4.20;;
22794;SDS011;11564;50.920;11.612;2023-07-30T05:10:21;4.27;;;3.90;;
22794;SDS011;11564;50.920;11.612;2023-07-30T05:12:47;5.53;;;3.87;;
22794;SDS011;11564;50.920;11.612;2023-07-30T05:15:13;10.83;;;4.27;;
22794;SDS011;11564;50.920;11.612;2023-07-30T05:17:38;4.10;;;3.70;;
22794;SDS011;11564;50.920;11.612;2023-07-30T05:20:04;4.83;;;4.47;;
22794;SDS011;11564;50.920;11.612;2023-07-30T05:22:30;4.43;;;4.03;;
22794;SDS011;11564;50.920;11.612;2023-07-30T05:24:56;6.20;;;3.50;;
22794;SDS011;11564;50.920;11.612;2023-07-30T05:27:21;4.83;;;4.43;;
22794;SDS011;11564;50.920;11.612;2023-07-30T05:29:47;7.80;;;3.60;;
22794;SDS011;11564;50.920;11.612;2023-07-30T05:32:13;4.33;;;3.70;;
22794;SDS011;11564;50.920;11.612;2023-07-30T05:34:39;5.63;;;3.50;;
22794;SDS011;11564;50.920;11.612;2023-07-30T05:37:05;4.60;;;3.83;;
22794;SDS011;11564;50.920;11.612;2023-07-30T05:39:30;5.93;;;3.83;;
22794;SDS011;11564;50.920;11.612;2023-07-30T05:41:56;3.80;;;3.50;;
22794;SDS011;11564;50.920;11.612;2023-07-30T05:44:21;3.73;;;3.43;;
22794;SDS011;11564;50.920;11.612;2023-07-30T05:46:47;3.90;;;3.60;;
22794;SDS011;11564;50.920;11.612;2023-07-30T05:49:13;3.80;;;3.60;;
22794;SDS011;11564;50.920;11.612;2023-07-30T05:51:39;5.17;;;3.53;;
22794;SDS011;11564;50.920;11.612;2023-07-30T05:54:05;3.00;;;2.80;;
22794;SDS011;11564;50.920;11.612;2023-07-30T05:56:31;2.53;;;2.30;;
22794;SDS011;11564;50.920;11.612;2023-07-30T05:58:56;2.50;;;2.30;;
22794;SDS011;11564;50.920;11.612;2023-07-30T06:01:22;2.57;;;2.33;;
22794;SDS011;11564;50.920;11.612;2023-07-30T06:03:47;7.30;;;2.67;;
22794;SDS011;11564;50.920;11.612;2023-07-30T06:06:14;2.87;;;2.60;;
22794;SDS011;11564;50.920;11.612;2023-07-30T06:08:39;2.30;;;2.13;;
22794;SDS011;11564;50.920;11.612;2023-07-30T06:11:05;2.87;;;2.63;;
22794;SDS011;11564;50.920;11.612;2023-07-30T06:13:31;2.77;;;2.50;;
22794;SDS011;11564;50.920;11.612;2023-07-30T06:15:56;3.37;;;2.00;;
22794;SDS011;11564;50.920;11.612;2023-07-30T06:18:22;2.60;;;2.40;;
22794;SDS011;11564;50.920;11.612;2023-07-30T06:20:47;2.27;;;2.07;;
22794;SDS011;11564;50.920;11.612;2023-07-30T06:23:13;7.53;;;2.50;;
22794;SDS011;11564;50.920;11.612;2023-07-30T06:25:38;2.40;;;2.30;;
22794;SDS011;11564;50.920;11.612;2023-07-30T06:28:04;3.23;;;2.93;;
22794;SDS011;11564;50.920;11.612;2023-07-30T06:30:31;3.30;;;2.57;;
22794;SDS011;11564;50.920;11.612;2023-07-30T06:32:57;4.03;;;2.40;;
22794;SDS011;11564;50.920;11.612;2023-07-30T06:35:23;3.67;;;2.30;;
22794;SDS011;11564;50.920;11.612;2023-07-30T06:37:50;6.17;;;2.80;;
22794;SDS011;11564;50.920;11.612;2023-07-30T06:40:15;2.97;;;2.30;;
22794;SDS011;11564;50.920;11.612;2023-07-30T06:42:41;8.90;;;2.50;;
22794;SDS011;11564;50.920;11.612;2023-07-30T06:45:07;3.10;;;2.57;;
22794;SDS011;11564;50.920;11.612;2023-07-30T06:47:33;2.83;;;2.60;;
22794;SDS011;11564;50.920;11.612;2023-07-30T06:49:59;2.07;;;1.97;;
22794;SDS011;11564;50.920;11.612;2023-07-30T06:52:24;2.17;;;2.07;;
22794;SDS011;11564;50.920;11.612;2023-07-30T06:54:50;3.23;;;2.50;;
22794;SDS011;11564;50.920;11.612;2023-07-30T06:57:15;2.90;;;2.70;;
22794;SDS011;11564;50.920;11.612;2023-07-30T06:59:41;4.87;;;2.50;;
22794;SDS011;11564;50.920;11.612;2023-07-30T07:02:07;2.03;;;1.93;;
22794;SDS011;11564;50.920;11.612;2023-07-30T07:04:32;3.53;;;2.43;;
22794;SDS011;11564;50.920;11.612;2023-07-30T07:06:58;2.50;;;2.30;;
22794;SDS011;11564;50.920;11.612;2023-07-30T07:09:24;2.63;;;2.43;;
22794;SDS011;11564;50.920;11.612;2023-07-30T07:11:49;5.70;;;2.07;;
22794;SDS011;11564;50.920;11.612;2023-07-30T07:14:15;3.00;;;2.73;;
22794;SDS011;11564;50.920;11.612;2023-07-30T07:16:41;2.23;;;2.03;;
22794;SDS011;11564;50.920;11.612;2023-07-30T07:19:06;3.37;;;2.20;;
22794;SDS011;11564;50.920;11.612;2023-07-30T07:21:32;6.73;;;2.10;;
22794;SDS011;11564;50.920;11.612;2023-07-30T07:23:58;3.10;;;2.20;;
22794;SDS011;11564;50.920;11.612;2023-07-30T07:26:23;2.90;;;1.87;;
22794;SDS011;11564;50.920;11.612;2023-07-30T07:28:49;4.10;;;1.90;;
22794;SDS011;11564;50.920;11.612;2023-07-30T07:31:15;2.73;;;2.00;;
22794;SDS011;11564;50.920;11.612;2023-07-30T07:33:41;2.40;;;1.73;;
22794;SDS011;11564;50.920;11.612;2023-07-30T07:36:08;2.30;;;2.10;;
22794;SDS011;11564;50.920;11.612;2023-07-30T07:38:34;4.00;;;2.50;;
22794;SDS011;11564;50.920;11.612;2023-07-30T07:41:00;1.83;;;1.60;;
22794;SDS011;11564;50.920;11.612;2023-07-30T07:43:26;2.37;;;1.50;;
22794;SDS011;11564;50.920;11.612;2023-07-30T07:45:52;4.10;;;1.53;;
22794;SDS011;11564;50.920;11.612;2023-07-30T07:48:18;3.03;;;1.90;;
22794;SDS011;11564;50.920;11.612;2023-07-30T07:50:44;2.40;;;1.73;;
22794;SDS011;11564;50.920;11.612;2023-07-30T07:53:10;1.73;;;1.63;;
22794;SDS011;11564;50.920;11.612;2023-07-30T07:55:36;1.60;;;1.50;;
22794;SDS011;11564;50.920;11.612;2023-07-30T07:58:02;1.70;;;1.60;;
22794;SDS011;11564;50.920;11.612;2023-07-30T08:00:27;2.93;;;1.43;;
22794;SDS011;11564;50.920;11.612;2023-07-30T08:02:53;2.27;;;1.47;;
22794;SDS011;11564;50.920;11.612;2023-07-30T08:05:19;2.17;;;1.80;;
22794;SDS011;11564;50.920;11.612;2023-07-30T08:07:47;1.30;;;1.20;;
22794;SDS011;11564;50.920;11.612;2023-07-30T08:10:13;2.37;;;1.60;;
22794;SDS011;11564;50.920;11.612;2023-07-30T08:12:39;4.93;;;1.50;;
22794;SDS011;11564;50.920;11.612;2023-07-30T08:15:04;3.63;;;1.57;;
22794;SDS011;11564;50.920;11.612;2023-07-30T08:17:30;2.57;;;1.30;;
22794;SDS011;11564;50.920;11.612;2023-07-30T08:19:56;3.23;;;1.73;;
22794;SDS011;11564;50.920;11.612;2023-07-30T08:22:21;1.97;;;1.60;;
22794;SDS011;11564;50.920;11.612;2023-07-30T08:24:47;2.40;;;1.33;;
22794;SDS011;11564;50.920;11.612;2023-07-30T08:27:13;1.27;;;1.17;;
22794;SDS011;11564;50.920;11.612;2023-07-30T08:29:39;3.23;;;1.73;;
22794;SDS011;11564;50.920;11.612;2023-07-30T08:32:04;1.40;;;1.30;;
22794;SDS011;11564;50.920;11.612;2023-07-30T08:34:30;1.87;;;1.77;;
22794;SDS011;11564;50.920;11.612;2023-07-30T08:36:56;5.13;;;1.70;;
22794;SDS011;11564;50.920;11.612;2023-07-30T08:39:21;2.00;;;1.60;;
22794;SDS011;11564;50.920;11.612;2023-07-30T08:41:47;2.47;;;1.53;;
22794;SDS011;11564;50.920;11.612;2023-07-30T08:44:13;4.70;;;1.30;;
22794;SDS011;11564;50.920;11.612;2023-07-30T08:46:38;2.40;;;1.40;;
22794;SDS011;11564;50.920;11.612;2023-07-30T08:49:04;1.63;;;1.30;;
22794;SDS011;11564;50.920;11.612;2023-07-30T08:51:30;2.97;;;1.23;;
22794;SDS011;11564;50.920;11.612;2023-07-30T08:53:57;2.03;;;0.97;;
22794;SDS011;11564;50.920;11.612;2023-07-30T08:56:25;3.37;;;1.20;;
22794;SDS011;11564;50.920;11.612;2023-07-30T08:58:52;1.27;;;1.17;;
22794;SDS011;11564;50.920;11.612;2023-07-30T09:01:22;2.53;;;1.30;;
22794;SDS011;11564;50.920;11.612;2023-07-30T09:03:54;1.33;;;1.23;;
22794;SDS011;11564;50.920;11.612;2023-07-30T09:06:23;1.37;;;1.20;;
22794;SDS011;11564;50.920;11.612;2023-07-30T09:08:49;1.03;;;0.97;;
22794;SDS011;11564;50.920;11.612;2023-07-30T09:11:15;3.00;;;1.30;;
22794;SDS011;11564;50.920;11.612;2023-07-30T09:13:41;2.60;;;1.00;;
22794;SDS011;11564;50.920;11.612;2023-07-30T09:16:10;6.87;;;0.90;;
22794;SDS011;11564;50.920;11.612;2023-07-30T09:18:40;2.60;;;0.97;;
22794;SDS011;11564;50.920;11.612;2023-07-30T09:21:07;1.60;;;1.10;;
22794;SDS011;11564;50.920;11.612;2023-07-30T09:23:39;1.73;;;0.90;;
22794;SDS011;11564;50.920;11.612;2023-07-30T09:26:09;1.47;;;0.90;;
22794;SDS011;11564;50.920;11.612;2023-07-30T09:28:34;3.53;;;1.17;;
22794;SDS011;11564;50.920;11.612;2023-07-30T09:31:04;2.33;;;0.87;;
22794;SDS011;11564;50.920;11.612;2023-07-30T09:33:32;1.50;;;0.90;;
22794;SDS011;11564;50.920;11.612;2023-07-30T09:35:58;1.30;;;0.87;;
22794;SDS011;11564;50.920;11.612;2023-07-30T09:38:27;1.50;;;1.07;;
22794;SDS011;11564;50.920;11.612;2023-07-30T09:40:59;1.13;;;1.03;;
22794;SDS011;11564;50.920;11.612;2023-07-30T09:43:29;1.10;;;1.00;;
22794;SDS011;11564;50.920;11.612;2023-07-30T09:46:01;1.50;;;1.17;;
22794;SDS011;11564;50.920;11.612;2023-07-30T09:48:29;10.23;;;1.10;;
22794;SDS011;11564;50.920;11.612;2023-07-30T09:50:57;2.40;;;1.30;;
22794;SDS011;11564;50.920;11.612;2023-07-30T09:53:30;1.20;;;1.00;;
22794;SDS011;11564;50.920;11.612;2023-07-30T09:56:03;1.10;;;0.90;;
22794;SDS011;11564;50.920;11.612;2023-07-30T09:58:30;1.20;;;0.90;;
22794;SDS011;11564;50.920;11.612;2023-07-30T10:01:00;1.57;;;1.00;;
22794;SDS011;11564;50.920;11.612;2023-07-30T10:03:29;1.33;;;0.90;;
22794;SDS011;11564;50.920;11.612;2023-07-30T10:06:00;0.87;;;0.87;;
22794;SDS011;11564;50.920;11.612;2023-07-30T10:08:29;1.00;;;0.90;;
22794;SDS011;11564;50.920;11.612;2023-07-30T10:10:58;2.10;;;1.20;;
22794;SDS011;11564;50.920;11.612;2023-07-30T10:13:25;2.70;;;1.00;;
22794;SDS011;11564;50.920;11.612;2023-07-30T10:15:51;1.10;;;0.87;;
22794;SDS011;11564;50.920;11.612;2023-07-30T10:18:17;1.63;;;0.90;;
22794;SDS011;11564;50.920;11.612;2023-07-30T10:20:53;1.10;;;1.00;;
22794;SDS011;11564;50.920;11.612;2023-07-30T10:23:20;1.30;;;1.03;;
22794;SDS011;11564;50.920;11.612;2023-07-30T10:25:48;3.13;;;1.10;;
22794;SDS011;11564;50.920;11.612;2023-07-30T10:28:25;1.93;;;1.10;;
22794;SDS011;11564;50.920;11.612;2023-07-30T10:30:55;2.40;;;0.60;;
22794;SDS011;11564;50.920;11.612;2023-07-30T10:33:21;1.57;;;1.03;;
22794;SDS011;11564;50.920;11.612;2023-07-30T10:35:47;4.60;;;0.90;;
22794;SDS011;11564;50.920;11.612;2023-07-30T10:38:16;0.80;;;0.60;;
22794;SDS011;11564;50.920;11.612;2023-07-30T10:43:27;2.13;;;1.10;;
22794;SDS011;11564;50.920;11.612;2023-07-30T10:45:53;3.23;;;1.00;;
22794;SDS011;11564;50.920;11.612;2023-07-30T10:48:19;0.80;;;0.60;;
22794;SDS011;11564;50.920;11.612;2023-07-30T10:50:54;4.30;;;0.87;;
22794;SDS011;11564;50.920;11.612;2023-07-30T10:53:19;1.00;;;0.70;;
22794;SDS011;11564;50.920;11.612;2023-07-30T10:55:45;0.97;;;0.83;;
22794;SDS011;11564;50.920;11.612;2023-07-30T10:58:11;1.60;;;1.00;;
22794;SDS011;11564;50.920;11.612;2023-07-30T11:00:36;1.70;;;0.87;;
22794;SDS011;11564;50.920;11.612;2023-07-30T11:03:03;1.00;;;0.80;;
22794;SDS011;11564;50.920;11.612;2023-07-30T11:05:28;0.87;;;0.70;;
22794;SDS011;11564;50.920;11.612;2023-07-30T11:07:55;0.90;;;0.70;;
22794;SDS011;11564;50.920;11.612;2023-07-30T11:10:21;1.00;;;0.80;;
22794;SDS011;11564;50.920;11.612;2023-07-30T11:12:48;1.23;;;1.00;;
22794;SDS011;11564;50.920;11.612;2023-07-30T11:15:14;1.17;;;1.07;;
22794;SDS011;11564;50.920;11.612;2023-07-30T11:17:40;1.10;;;1.00;;
22794;SDS011;11564;50.920;11.612;2023-07-30T11:20:07;1.73;;;0.90;;
22794;SDS011;11564;50.920;11.612;2023-07-30T11:22:35;1.60;;;0.90;;
22794;SDS011;11564;50.920;11.612;2023-07-30T11:25:00;0.97;;;0.90;;
22794;SDS011;11564;50.920;11.612;2023-07-30T11:27:46;1.00;;;0.90;;
22794;SDS011;11564;50.920;11.612;2023-07-30T11:30:13;3.00;;;1.00;;
22794;SDS011;11564;50.920;11.612;2023-07-30T11:32:38;6.73;;;0.70;;
22794;SDS011;11564;50.920;11.612;2023-07-30T11:35:04;3.43;;;1.10;;
22794;SDS011;11564;50.920;11.612;2023-07-30T11:37:32;1.10;;;1.00;;
22794;SDS011;11564;50.920;11.612;2023-07-30T11:39:58;1.33;;;1.23;;
22794;SDS011;11564;50.920;11.612;2023-07-30T11:42:24;1.97;;;1.20;;
22794;SDS011;11564;50.920;11.612;2023-07-30T11:44:50;1.23;;;1.00;;
22794;SDS011;11564;50.920;11.612;2023-07-30T11:47:22;0.90;;;0.80;;
22794;SDS011;11564;50.920;11.612;2023-07-30T11:49:55;1.00;;;0.90;;
22794;SDS011;11564;50.920;11.612;2023-07-30T11:52:22;7.93;;;1.20;;
22794;SDS011;11564;50.920;11.612;2023-07-30T11:54:47;1.40;;;0.87;;
22794;SDS011;11564;50.920;11.612;2023-07-30T11:57:13;1.30;;;0.90;;
22794;SDS011;11564;50.920;11.612;2023-07-30T11:59:39;1.67;;;0.80;;
22794;SDS011;11564;50.920;11.612;2023-07-30T12:02:07;4.43;;;1.47;;
22794;SDS011;11564;50.920;11.612;2023-07-30T12:04:45;2.40;;;1.03;;
22794;SDS011;11564;50.920;11.612;2023-07-30T12:07:10;1.47;;;1.07;;
22794;SDS011;11564;50.920;11.612;2023-07-30T12:09:46;1.53;;;1.23;;
22794;SDS011;11564;50.920;11.612;2023-07-30T12:12:12;3.17;;;1.13;;
22794;SDS011;11564;50.920;11.612;2023-07-30T12:14:58;1.20;;;1.10;;
22794;SDS011;11564;50.920;11.612;2023-07-30T12:17:24;1.00;;;0.80;;
22794;SDS011;11564;50.920;11.612;2023-07-30T12:19:50;1.50;;;1.03;;
22794;SDS011;11564;50.920;11.612;2023-07-30T12:22:15;1.37;;;1.00;;
22794;SDS011;11564;50.920;11.612;2023-07-30T12:24:41;1.27;;;0.83;;
22794;SDS011;11564;50.920;11.612;2023-07-30T12:27:06;1.90;;;1.50;;
22794;SDS011;11564;50.920;11.612;2023-07-30T12:29:32;4.47;;;1.50;;
22794;SDS011;11564;50.920;11.612;2023-07-30T12:31:58;4.40;;;2.23;;
22794;SDS011;11564;50.920;11.612;2023-07-30T12:34:24;6.00;;;1.70;;
22794;SDS011;11564;50.920;11.612;2023-07-30T12:36:49;5.93;;;1.87;;
22794;SDS011;11564;50.920;11.612;2023-07-30T12:39:15;3.20;;;1.50;;
22794;SDS011;11564;50.920;11.612;2023-07-30T12:41:41;4.90;;;1.63;;
22794;SDS011;11564;50.920;11.612;2023-07-30T12:44:06;6.20;;;1.60;;
22794;SDS011;11564;50.920;11.612;2023-07-30T12:46:32;1.60;;;1.50;;
22794;SDS011;11564;50.920;11.612;2023-07-30T12:49:01;2.20;;;1.30;;
22794;SDS011;11564;50.920;11.612;2023-07-30T12:51:29;1.60;;;1.50;;
22794;SDS011;11564;50.920;11.612;2023-07-30T12:53:55;3.33;;;1.50;;
22794;SDS011;11564;50.920;11.612;2023-07-30T12:56:20;5.67;;;1.67;;
22794;SDS011;11564;50.920;11.612;2023-07-30T12:58:46;7.70;;;1.40;;
22794;SDS011;11564;50.920;11.612;2023-07-30T13:01:12;2.30;;;1.30;;
22794;SDS011;11564;50.920;11.612;2023-07-30T13:03:37;7.23;;;1.70;;
22794;SDS011;11564;50.920;11.612;2023-07-30T13:06:04;3.50;;;1.10;;
22794;SDS011;11564;50.920;11.612;2023-07-30T13:08:29;1.20;;;1.10;;
22794;SDS011;11564;50.920;11.612;2023-07-30T13:10:55;1.40;;;1.30;;
22794;SDS011;11564;50.920;11.612;2023-07-30T13:13:21;2.77;;;1.10;;
22794;SDS011;11564;50.920;11.612;2023-07-30T13:15:46;1.30;;;1.20;;
22794;SDS011;11564;50.920;11.612;2023-07-30T13:18:12;1.60;;;1.33;;
22794;SDS011;11564;50.920;11.612;2023-07-30T13:20:38;1.50;;;1.27;;
22794;SDS011;11564;50.920;11.612;2023-07-30T13:23:03;2.97;;;1.63;;
22794;SDS011;11564;50.920;11.612;2023-07-30T13:25:29;1.30;;;1.10;;
22794;SDS011;11564;50.920;11.612;2023-07-30T13:27:54;1.90;;;1.23;;
22794;SDS011;11564;50.920;11.612;2023-07-30T13:30:20;1.40;;;1.20;;
22794;SDS011;11564;50.920;11.612;2023-07-30T13:32:52;6.30;;;1.00;;
22794;SDS011;11564;50.920;11.612;2023-07-30T13:35:17;7.00;;;1.40;;
22794;SDS011;11564;50.920;11.612;2023-07-30T13:37:43;1.53;;;0.90;;
22794;SDS011;11564;50.920;11.612;2023-07-30T13:40:09;1.27;;;1.17;;
22794;SDS011;11564;50.920;11.612;2023-07-30T13:42:35;1.30;;;1.20;;
22794;SDS011;11564;50.920;11.612;2023-07-30T13:45:00;2.63;;;1.40;;
22794;SDS011;11564;50.920;11.612;2023-07-30T13:47:26;2.10;;;1.33;;
22794;SDS011;11564;50.920;11.612;2023-07-30T13:49:51;1.87;;;1.13;;
22794;SDS011;11564;50.920;11.612;2023-07-30T13:52:19;3.07;;;1.10;;
22794;SDS011;11564;50.920;11.612;2023-07-30T13:54:44;2.60;;;1.20;;
22794;SDS011;11564;50.920;11.612;2023-07-30T13:57:10;2.07;;;1.33;;
22794;SDS011;11564;50.920;11.612;2023-07-30T13:59:36;27.40;;;1.90;;
22794;SDS011;11564;50.920;11.612;2023-07-30T14:02:03;1.20;;;0.40;;
22794;SDS011;11564;50.920;11.612;2023-07-30T14:04:28;0.60;;;0.30;;
22794;SDS011;11564;50.920;11.612;2023-07-30T14:06:54;0.60;;;0.50;;
22794;SDS011;11564;50.920;11.612;2023-07-30T14:09:20;1.10;;;0.40;;
22794;SDS011;11564;50.920;11.612;2023-07-30T14:11:45;0.60;;;0.40;;
22794;SDS011;11564;50.920;11.612;2023-07-30T14:14:11;0.60;;;0.30;;
22794;SDS011;11564;50.920;11.612;2023-07-30T14:16:37;0.60;;;0.50;;
22794;SDS011;11564;50.920;11.612;2023-07-30T14:19:03;8.23;;;1.50;;
22794;SDS011;11564;50.920;11.612;2023-07-30T14:21:28;1.23;;;1.17;;
22794;SDS011;11564;50.920;11.612;2023-07-30T14:23:54;0.60;;;0.30;;
22794;SDS011;11564;50.920;11.612;2023-07-30T14:26:20;0.60;;;0.30;;
22794;SDS011;11564;50.920;11.612;2023-07-30T14:28:45;0.80;;;0.80;;
22794;SDS011;11564;50.920;11.612;2023-07-30T14:31:11;0.60;;;0.30;;